createdAt,value
2022-12-23T00:02:17.927Z,97606.13
2022-12-23T00:05:22.012Z,97613.22
2022-12-23T00:08:27.547Z,97617.59
2022-12-23T00:11:31.194Z,97627.44
2022-12-23T00:14:53.564Z,97622.44
2022-12-23T00:17:57.290Z,97617.59
2022-12-23T00:21:08.128Z,97626.00
2022-12-23T00:24:13.375Z,97613.88
2022-12-23T00:27:16.549Z,97616.94
2022-12-23T00:30:21.647Z,97616.31
2022-12-23T00:33:29.095Z,97626.16
2022-12-23T00:36:32.627Z,97625.69
2022-12-23T00:40:05.862Z,97628.41
2022-12-23T00:43:10.510Z,97640.84
2022-12-23T00:46:15.183Z,97642.16
2022-12-23T00:49:38.550Z,97643.75
2022-12-23T00:52:41.890Z,97639.22
2022-12-23T00:55:47.727Z,97650.06
2022-12-23T00:58:51.043Z,97647.78
2022-12-23T01:02:13.974Z,97649.88
2022-12-23T01:05:34.785Z,97652.47
2022-12-23T01:08:38.747Z,97652.94
2022-12-23T01:11:42.651Z,97650.69
2022-12-23T01:14:46.533Z,97646.00
2022-12-23T01:17:51.228Z,97650.88
2022-12-23T01:20:55.138Z,97639.88
2022-12-23T01:23:58.789Z,97642.63
2022-12-23T01:27:02.792Z,97647.00
2022-12-23T01:30:07.999Z,97649.44
2022-12-23T01:33:13.045Z,97656.53
2022-12-23T01:36:16.473Z,97656.53
2022-12-23T01:39:20.037Z,97647.16
2022-12-23T01:42:40.956Z,97647.97
2022-12-23T01:45:44.908Z,97656.53
2022-12-23T01:48:54.290Z,97657.50
2022-12-23T01:51:58.006Z,97658.97
2022-12-23T01:55:01.512Z,97661.34
2022-12-23T01:58:13.407Z,97658.81
2022-12-23T02:01:34.730Z,97659.75
2022-12-23T02:04:39.835Z,97652.66
2022-12-23T02:08:02.381Z,97661.34
2022-12-23T02:11:35.758Z,97654.94
2022-12-23T02:15:20.161Z,97660.25
2022-12-23T02:19:13.487Z,97658.31
2022-12-23T02:22:55.115Z,97663.66
2022-12-23T02:26:31.381Z,97671.06
2022-12-23T02:30:30.178Z,97678.69
2022-12-23T02:33:52.953Z,97668.97
2022-12-23T02:37:08.467Z,97670.25
2022-12-23T02:40:25.421Z,97668.31
2022-12-23T02:43:41.118Z,97678.50
2022-12-23T02:46:51.167Z,97674.94
2022-12-23T02:50:00.129Z,97680.13
2022-12-23T02:53:15.306Z,97680.28
2022-12-23T02:56:23.191Z,97678.97
2022-12-23T02:59:32.074Z,97680.28
2022-12-23T03:02:40.568Z,97676.41
2022-12-23T03:05:48.031Z,97681.09
2022-12-23T03:08:58.190Z,97678.34
2022-12-23T03:12:17.940Z,97669.00
2022-12-23T03:15:36.127Z,97669.00
2022-12-23T03:18:57.586Z,97663.19
2022-12-23T03:22:17.325Z,97668.66
2022-12-23T03:25:27.895Z,97658.00
2022-12-23T03:28:41.110Z,97665.13
2022-12-23T03:31:48.691Z,97659.94
2022-12-23T03:34:59.477Z,97664.00
2022-12-23T03:38:08.536Z,97662.38
2022-12-23T03:41:21.026Z,97653.00
2022-12-23T03:44:32.453Z,97667.06
2022-12-23T03:47:45.297Z,97665.13
2022-12-23T03:50:57.862Z,97674.66
2022-12-23T03:54:10.352Z,97674.97
2022-12-23T03:57:16.571Z,97671.75
2022-12-23T04:00:20.179Z,97657.19
2022-12-23T04:03:36.072Z,97650.25
2022-12-23T04:06:53.026Z,97652.50
2022-12-23T04:09:58.523Z,97644.88
2022-12-23T04:13:02.445Z,97641.31
2022-12-23T04:16:07.741Z,97638.28
2022-12-23T04:19:11.450Z,97648.75
2022-12-23T04:22:17.750Z,97654.78
2022-12-23T04:25:21.205Z,97648.75
2022-12-23T04:28:25.264Z,97645.22
2022-12-23T04:31:28.571Z,97643.25
2022-12-23T04:34:32.630Z,97641.69
2022-12-23T04:37:37.759Z,97646.81
2022-12-23T04:40:41.504Z,97643.63
2022-12-23T04:43:49.316Z,97651.84
2022-12-23T04:46:56.426Z,97654.91
2022-12-23T04:49:59.886Z,97645.06
2022-12-23T04:53:05.242Z,97648.75
2022-12-23T04:56:08.876Z,97648.28
2022-12-23T04:59:12.742Z,97654.25
2022-12-23T05:02:16.117Z,97645.72
2022-12-23T05:05:20.142Z,97648.47
2022-12-23T05:08:25.253Z,97648.16
2022-12-23T05:11:29.180Z,97658.31
2022-12-23T05:14:32.414Z,97659.13
2022-12-23T05:17:36.200Z,97659.13
2022-12-23T05:20:39.884Z,97659.13
2022-12-23T05:23:44.947Z,97656.06
2022-12-23T05:26:54.226Z,97656.38
2022-12-23T05:30:03.273Z,97652.31
2022-12-23T05:33:06.553Z,97653.47
2022-12-23T05:36:12.074Z,97656.72
2022-12-23T05:39:16.727Z,97653.97
2022-12-23T05:42:20.664Z,97650.72
2022-12-23T05:45:24.121Z,97643.63
2022-12-23T05:48:27.949Z,97645.22
2022-12-23T05:51:31.253Z,97640.53
2022-12-23T05:54:36.309Z,97645.41
2022-12-23T05:57:39.674Z,97646.53
2022-12-23T06:00:43.569Z,97648.97
2022-12-23T06:03:46.897Z,97659.94
2022-12-23T06:06:50.643Z,97658.81
2022-12-23T06:09:55.230Z,97650.25
2022-12-23T06:12:58.897Z,97655.75
2022-12-23T06:16:02.180Z,97648.97
2022-12-23T06:19:05.812Z,97639.91
2022-12-23T06:22:09.271Z,97637.97
2022-12-23T06:25:14.281Z,97638.16
2022-12-23T06:28:17.549Z,97635.72
2022-12-23T06:31:21.244Z,97640.41
2022-12-23T06:34:24.580Z,97644.75
2022-12-23T06:37:28.257Z,97653.00
2022-12-23T06:40:32.814Z,97637.81
2022-12-23T06:43:36.845Z,97643.25
2022-12-23T06:46:39.996Z,97641.81
2022-12-23T06:49:43.751Z,97642.94
2022-12-23T06:52:48.985Z,97648.44
2022-12-23T06:56:01.069Z,97634.56
2022-12-23T06:59:04.533Z,97632.78
2022-12-23T07:02:11.813Z,97626.31
2022-12-23T07:05:15.405Z,97627.59
2022-12-23T07:08:19.424Z,97625.06
2022-12-23T07:11:25.420Z,97627.97
2022-12-23T07:14:29.226Z,97630.41
2022-12-23T07:17:32.512Z,97630.88
2022-12-23T07:20:36.477Z,97631.34
2022-12-23T07:23:39.854Z,97643.94
2022-12-23T07:26:44.851Z,97634.56
2022-12-23T07:29:48.032Z,97638.94
2022-12-23T07:32:52.394Z,97630.69
2022-12-23T07:35:59.556Z,97630.88
2022-12-23T07:39:03.395Z,97623.59
2022-12-23T07:42:42.841Z,97619.06
2022-12-23T07:45:32.323Z,97607.91
2022-12-23T07:48:35.921Z,97605.66
2022-12-23T07:51:39.886Z,97606.16
2022-12-23T07:54:43.560Z,97605.50
2022-12-23T07:57:51.418Z,97601.31
2022-12-23T08:01:02.268Z,97601.75
2022-12-23T08:04:06.179Z,97601.31
2022-12-23T08:07:09.484Z,97593.53
2022-12-23T08:10:14.297Z,97595.31
2022-12-23T08:13:19.019Z,97597.09
2022-12-23T08:16:22.776Z,97597.09
2022-12-23T08:19:26.165Z,97595.75
2022-12-23T08:22:32.596Z,97603.00
2022-12-23T08:25:36.340Z,97585.38
2022-12-23T08:28:44.878Z,97606.69
2022-12-23T08:31:49.996Z,97590.81
2022-12-23T08:34:53.974Z,97596.63
2022-12-23T08:37:57.322Z,97594.69
2022-12-23T08:41:01.295Z,97588.38
2022-12-23T08:44:06.965Z,97592.28
2022-12-23T08:47:10.731Z,97584.53
2022-12-23T08:50:14.089Z,97586.31
2022-12-23T08:53:18.101Z,97574.00
2022-12-23T08:56:24.711Z,97571.91
2022-12-23T08:59:30.317Z,97577.75
2022-12-23T09:02:33.814Z,97574.50
2022-12-23T09:05:42.497Z,97575.81
2022-12-23T09:08:46.672Z,97570.16
2022-12-23T09:11:50.429Z,97562.72
2022-12-23T09:14:55.303Z,97568.19
2022-12-23T09:17:59.073Z,97568.53
2022-12-23T09:21:04.862Z,97562.72
2022-12-23T09:24:08.776Z,97557.53
2022-12-23T09:27:12.307Z,97560.28
2022-12-23T09:30:17.761Z,97549.78
2022-12-23T09:33:21.201Z,97552.50
2022-12-23T09:36:25.340Z,97543.63
2022-12-23T09:39:28.637Z,97532.78
2022-12-23T09:42:58.940Z,97535.59
2022-12-23T09:46:15.430Z,97529.34
2022-12-23T09:49:22.104Z,97526.84
2022-12-23T09:52:42.640Z,97537.56
2022-12-23T09:55:55.226Z,97527.31
2022-12-23T09:59:16.320Z,97524.56
2022-12-23T10:02:38.018Z,97534.75
2022-12-23T10:06:01.702Z,97527.41
2022-12-23T10:09:13.450Z,97524.25
2022-12-23T10:12:37.391Z,97517.78
2022-12-23T10:15:49.196Z,97520.28
2022-12-23T10:19:02.465Z,97523.81
2022-12-23T10:22:15.146Z,97523.22
2022-12-23T10:25:30.034Z,97520.97
2022-12-23T10:28:33.637Z,97511.06
2022-12-23T10:31:54.188Z,97516.72
2022-12-23T10:35:11.755Z,97513.94
2022-12-23T10:38:37.396Z,97518.88
2022-12-23T10:42:03.787Z,97514.84
2022-12-23T10:45:49.541Z,97513.94
2022-12-23T10:49:09.253Z,97503.59
2022-12-23T10:52:20.957Z,97506.63
2022-12-23T10:55:33.527Z,97508.59
2022-12-23T10:58:47.253Z,97497.88
2022-12-23T11:02:02.477Z,97491.66
2022-12-23T11:05:17.206Z,97504.41
2022-12-23T11:08:25.332Z,97494.84
2022-12-23T11:12:00.134Z,97494.94
2022-12-23T11:15:08.314Z,97509.03
2022-12-23T11:18:21.082Z,97494.94
2022-12-23T11:21:24.694Z,97489.69
2022-12-23T11:24:35.325Z,97492.06
2022-12-23T11:27:46.913Z,97499.22
2022-12-23T11:31:05.739Z,97484.25
2022-12-23T11:34:18.382Z,97492.53
2022-12-23T11:37:35.200Z,97496.56
2022-12-23T11:40:41.024Z,97501.63
2022-12-23T11:43:44.540Z,97492.53
2022-12-23T11:46:48.333Z,97502.09
2022-12-23T11:49:55.249Z,97491.94
2022-12-23T11:53:15.609Z,97495.22
2022-12-23T11:56:21.662Z,97497.44
2022-12-23T11:59:34.004Z,97501.16
2022-12-23T12:02:44.320Z,97502.88
2022-12-23T12:05:52.821Z,97505.38
2022-12-23T12:09:01.276Z,97503.44
2022-12-23T12:12:16.373Z,97507.00
2022-12-23T12:15:47.793Z,97511.78
2022-12-23T12:18:56.895Z,97514.56
2022-12-23T12:22:07.250Z,97507.97
2022-12-23T12:25:21.126Z,97513.31
2022-12-23T12:28:33.995Z,97514.94
2022-12-23T12:31:44.224Z,97509.03
2022-12-23T12:34:57.039Z,97512.81
2022-12-23T12:38:11.870Z,97512.81
2022-12-23T12:41:28.553Z,97518.41
2022-12-23T12:44:56.708Z,97513.50
2022-12-23T12:48:30.486Z,97510.28
2022-12-23T12:51:47.035Z,97519.06
2022-12-23T12:54:58.820Z,97517.72
2022-12-23T12:58:06.073Z,97515.06
2022-12-23T13:01:38.489Z,97505.59
2022-12-23T13:05:20.571Z,97507.16
2022-12-23T13:08:49.409Z,97506.66
2022-12-23T13:12:08.177Z,97505.13
2022-12-23T13:15:24.064Z,97521.44
2022-12-23T13:18:43.994Z,97518.31
2022-12-23T13:21:56.131Z,97527.00
2022-12-23T13:25:10.586Z,97522.00
2022-12-23T13:28:34.596Z,97521.34
2022-12-23T13:31:50.887Z,97514.19
2022-12-23T13:35:10.167Z,97516.91
2022-12-23T13:38:34.328Z,97520.38
2022-12-23T13:41:45.056Z,97526.19
2022-12-23T13:44:48.885Z,97521.66
2022-12-23T13:48:12.327Z,97524.97
2022-12-23T13:51:27.034Z,97522.69
2022-12-23T13:54:50.378Z,97527.25
2022-12-23T13:58:03.623Z,97533.84
2022-12-23T14:01:43.610Z,97540.28
2022-12-23T14:05:00.648Z,97544.13
2022-12-23T14:08:20.921Z,97537.41
2022-12-23T14:11:28.836Z,97538.69
2022-12-23T14:14:33.059Z,97535.66
2022-12-23T14:17:51.209Z,97543.88
2022-12-23T14:21:11.823Z,97545.66
2022-12-23T14:25:13.317Z,97543.06
2022-12-23T14:28:46.903Z,97553.69
2022-12-23T14:31:57.951Z,97547.88
2022-12-23T14:35:22.002Z,97560.44
2022-12-23T14:38:34.837Z,97566.16
2022-12-23T14:41:49.108Z,97559.63
2022-12-23T14:44:52.771Z,97572.31
2022-12-23T14:47:56.391Z,97567.66
2022-12-23T14:51:03.063Z,97571.22
2022-12-23T14:54:16.488Z,97565.03
2022-12-23T14:57:29.702Z,97570.19
2022-12-23T15:00:33.189Z,97565.09
2022-12-23T15:03:46.810Z,97557.06
2022-12-23T15:06:55.532Z,97572.94
2022-12-23T15:10:02.744Z,97567.13
2022-12-23T15:13:07.754Z,97576.38
2022-12-23T15:16:18.656Z,97569.84
2022-12-23T15:19:26.777Z,97571.09
2022-12-23T15:22:33.277Z,97569.13
2022-12-23T15:25:41.691Z,97571.09
2022-12-23T15:28:46.943Z,97560.38
2022-12-23T15:31:54.085Z,97569.03
2022-12-23T15:35:05.382Z,97567.16
2022-12-23T15:38:08.946Z,97562.56
2022-12-23T15:41:18.552Z,97565.72
2022-12-23T15:44:26.997Z,97567.00
2022-12-23T15:47:33.260Z,97565.22
2022-12-23T15:50:42.394Z,97576.44
2022-12-23T15:53:49.356Z,97577.13
2022-12-23T15:56:55.399Z,97572.31
2022-12-23T16:00:01.169Z,97583.22
2022-12-23T16:03:10.392Z,97577.16
2022-12-23T16:06:24.596Z,97575.91
2022-12-23T16:09:36.076Z,97573.09
2022-12-23T16:12:41.240Z,97568.31
2022-12-23T16:15:47.925Z,97573.28
2022-12-23T16:18:51.844Z,97585.91
2022-12-23T16:21:56.031Z,97574.03
2022-12-23T16:25:19.449Z,97570.63
2022-12-23T16:28:30.217Z,97565.72
2022-12-23T16:31:35.766Z,97572.50
2022-12-23T16:34:40.661Z,97570.09
2022-12-23T16:37:49.259Z,97572.78
2022-12-23T16:40:57.376Z,97570.81
2022-12-23T16:44:01.020Z,97569.56
2022-12-23T16:47:17.307Z,97564.88
2022-12-23T16:50:21.218Z,97576.31
2022-12-23T16:53:25.025Z,97574.78
2022-12-23T16:56:35.638Z,97573.59
2022-12-23T16:59:41.055Z,97579.78
2022-12-23T17:02:48.856Z,97561.91
2022-12-23T17:05:52.817Z,97561.31
2022-12-23T17:08:57.425Z,97562.09
2022-12-23T17:12:01.155Z,97549.34
2022-12-23T17:15:06.802Z,97568.72
2022-12-23T17:18:15.233Z,97568.81
2022-12-23T17:21:24.600Z,97572.38
2022-12-23T17:24:28.758Z,97575.94
2022-12-23T17:27:32.405Z,97567.66
2022-12-23T17:30:37.557Z,97579.13
2022-12-23T17:33:42.583Z,97587.53
2022-12-23T17:36:50.395Z,97581.19
2022-12-23T17:39:54.799Z,97585.88
2022-12-23T17:42:58.781Z,97579.59
2022-12-23T17:46:02.350Z,97576.47
2022-12-23T17:49:07.282Z,97585.66
2022-12-23T17:52:16.995Z,97588.09
2022-12-23T17:55:24.012Z,97589.25
2022-12-23T17:58:27.482Z,97586.81
2022-12-23T18:01:33.208Z,97584.50
2022-12-23T18:04:38.131Z,97583.72
2022-12-23T18:07:41.577Z,97580.50
2022-12-23T18:10:46.369Z,97591.56
2022-12-23T18:13:53.238Z,97596.75
2022-12-23T18:16:56.778Z,97589.25
2022-12-23T18:20:01.801Z,97590.16
2022-12-23T18:23:05.631Z,97594.50
2022-12-23T18:26:15.033Z,97583.88
2022-12-23T18:29:18.740Z,97587.88
2022-12-23T18:32:25.988Z,97595.47
2022-12-23T18:35:33.918Z,97596.97
2022-12-23T18:38:37.529Z,97594.47
2022-12-23T18:41:41.920Z,97601.47
2022-12-23T18:44:49.174Z,97596.63
2022-12-23T18:47:52.735Z,97591.34
2022-12-23T18:50:57.559Z,97594.56
2022-12-23T18:54:01.096Z,97591.91
2022-12-23T18:57:04.891Z,97585.19
2022-12-23T19:00:15.500Z,97583.84
2022-12-23T19:03:24.798Z,97583.47
2022-12-23T19:06:29.822Z,97582.72
2022-12-23T19:09:33.278Z,97581.91
2022-12-23T19:12:36.961Z,97587.75
2022-12-23T19:15:41.748Z,97584.91
2022-12-23T19:18:45.626Z,97590.44
2022-12-23T19:21:50.768Z,97593.50
2022-12-23T19:25:05.431Z,97593.16
2022-12-23T19:28:10.647Z,97586.16
2022-12-23T19:31:17.648Z,97588.88
2022-12-23T19:34:21.122Z,97601.28
2022-12-23T19:37:26.066Z,97603.53
2022-12-23T19:40:30.275Z,97613.72
2022-12-23T19:43:34.371Z,97616.38
2022-12-23T19:46:38.023Z,97608.44
2022-12-23T19:49:41.720Z,97600.06
2022-12-23T19:52:46.854Z,97592.09
2022-12-23T19:55:59.268Z,97594.59
2022-12-23T19:59:04.016Z,97590.59
2022-12-23T20:02:07.704Z,97589.34
2022-12-23T20:05:11.632Z,97575.84
2022-12-23T20:08:17.583Z,97585.66
2022-12-23T20:11:26.180Z,97575.28
2022-12-23T20:14:33.758Z,97570.03
2022-12-23T20:17:39.052Z,97568.88
2022-12-23T20:20:45.066Z,97553.06
2022-12-23T20:23:50.867Z,97555.84
2022-12-23T20:26:54.795Z,97557.34
2022-12-23T20:29:58.680Z,97545.03
2022-12-23T20:33:02.429Z,97543.41
2022-12-23T20:36:08.089Z,97541.19
2022-12-23T20:39:14.028Z,97538.50
2022-12-23T20:42:17.874Z,97536.47
2022-12-23T20:45:22.288Z,97546.28
2022-12-23T20:48:33.604Z,97552.69
2022-12-23T20:51:37.769Z,97546.34
2022-12-23T20:54:42.795Z,97553.47
2022-12-23T20:57:46.737Z,97557.34
2022-12-23T21:00:51.723Z,97553.41
2022-12-23T21:03:58.406Z,97557.78
2022-12-23T21:07:01.959Z,97557.06
2022-12-23T21:10:20.731Z,97553.97
2022-12-23T21:13:24.137Z,97564.94
2022-12-23T21:16:27.856Z,97555.44
2022-12-23T21:19:32.844Z,97559.66
2022-12-23T21:22:36.371Z,97564.13
2022-12-23T21:25:41.480Z,97550.91
2022-12-23T21:28:47.866Z,97546.88
2022-12-23T21:31:51.823Z,97545.47
2022-12-23T21:34:55.427Z,97565.38
2022-12-23T21:37:58.947Z,97561.06
2022-12-23T21:41:09.999Z,97570.72
2022-12-23T21:44:15.017Z,97564.03
2022-12-23T21:47:22.328Z,97559.31
2022-12-23T21:50:26.276Z,97553.06
2022-12-23T21:53:29.855Z,97554.63
2022-12-23T21:56:35.115Z,97547.28
2022-12-23T21:59:38.987Z,97550.03
2022-12-23T22:02:42.925Z,97547.59
2022-12-23T22:05:46.626Z,97548.94
2022-12-23T22:08:53.010Z,97540.09
2022-12-23T22:11:58.357Z,97540.81
2022-12-23T22:15:05.048Z,97538.78
2022-12-23T22:18:13.149Z,97527.25
2022-12-23T22:21:19.953Z,97534.50
2022-12-23T22:24:23.555Z,97537.63
2022-12-23T22:27:28.571Z,97533.75
2022-12-23T22:30:32.013Z,97531.72
2022-12-23T22:33:35.905Z,97529.84
2022-12-23T22:36:39.531Z,97524.75
2022-12-23T22:39:43.103Z,97524.84
2022-12-23T22:42:48.104Z,97518.16
2022-12-23T22:45:57.655Z,97517.34
2022-12-23T22:49:01.337Z,97508.50
2022-12-23T22:52:05.259Z,97503.75
2022-12-23T22:55:10.142Z,97511.00
2022-12-23T22:58:15.056Z,97504.41
2022-12-23T23:01:23.711Z,97499.28
2022-12-23T23:04:27.209Z,97498.06
2022-12-23T23:07:30.977Z,97501.19
2022-12-23T23:10:34.626Z,97488.16
2022-12-23T23:13:39.742Z,97487.44
2022-12-23T23:16:43.704Z,97484.22
2022-12-23T23:19:47.405Z,97475.56
2022-12-23T23:22:51.993Z,97483.69
2022-12-23T23:25:55.719Z,97494.78
2022-12-23T23:29:00.557Z,97484.06
2022-12-23T23:32:06.076Z,97487.53
2022-12-23T23:35:11.018Z,97474.84
2022-12-23T23:38:14.896Z,97475.31
2022-12-23T23:41:22.914Z,97469.84
2022-12-23T23:44:28.583Z,97471.28
2022-12-23T23:47:34.704Z,97466.19
2022-12-23T23:50:38.879Z,97460.50
2022-12-23T23:53:42.296Z,97465.78
2022-12-23T23:56:45.917Z,97456.13
2022-12-23T23:59:50.995Z,97454.47
